createdAt,value
2023-04-29T00:00:39.876Z,98.60
2023-04-29T00:03:07.118Z,98.32
2023-04-29T00:05:34.534Z,98.29
2023-04-29T00:08:01.601Z,98.42
2023-04-29T00:10:29.201Z,98.79
2023-04-29T00:12:56.638Z,99.07
2023-04-29T00:15:23.667Z,99.25
2023-04-29T00:17:51.000Z,99.48
2023-04-29T00:20:18.251Z,99.94
2023-04-29T00:22:45.256Z,100.00
2023-04-29T00:25:12.480Z,100.00
2023-04-29T00:27:51.822Z,100.00
2023-04-29T00:30:34.697Z,100.00
2023-04-29T00:33:02.566Z,100.00
2023-04-29T00:35:29.982Z,100.00
2023-04-29T00:38:02.010Z,100.00
2023-04-29T00:40:29.375Z,100.00
2023-04-29T00:42:57.394Z,100.00
2023-04-29T00:45:25.850Z,100.00
2023-04-29T00:47:53.050Z,100.00
2023-04-29T00:50:21.411Z,99.70
2023-04-29T00:52:48.674Z,99.75
2023-04-29T00:55:16.571Z,99.96
2023-04-29T00:57:46.158Z,99.63
2023-04-29T01:00:15.916Z,99.62
2023-04-29T01:02:46.694Z,99.78
2023-04-29T01:05:15.504Z,99.22
2023-04-29T01:08:13.380Z,99.19
2023-04-29T01:10:55.520Z,99.37
2023-04-29T01:13:40.773Z,99.02
2023-04-29T01:16:21.851Z,99.11
2023-04-29T01:18:55.780Z,99.00
2023-04-29T01:21:28.266Z,99.18
2023-04-29T01:23:58.590Z,99.15
2023-04-29T01:26:32.948Z,99.25
2023-04-29T01:29:28.037Z,99.57
2023-04-29T01:32:11.726Z,99.77
2023-04-29T01:34:43.033Z,99.61
2023-04-29T01:37:21.856Z,99.69
2023-04-29T01:40:26.943Z,99.44
2023-04-29T01:43:08.261Z,99.50
2023-04-29T01:45:36.402Z,99.47
2023-04-29T01:48:05.903Z,99.16
2023-04-29T01:50:36.014Z,99.10
2023-04-29T01:53:12.348Z,99.30
2023-04-29T01:55:40.229Z,99.61
2023-04-29T01:58:14.967Z,99.57
2023-04-29T02:01:00.546Z,99.54
2023-04-29T02:03:31.080Z,99.64
2023-04-29T02:05:59.814Z,99.66
2023-04-29T02:08:26.901Z,100.00
2023-04-29T02:10:56.217Z,99.83
2023-04-29T02:13:34.392Z,100.00
2023-04-29T02:16:15.712Z,100.00
2023-04-29T02:18:47.982Z,99.86
2023-04-29T02:21:15.167Z,100.00
2023-04-29T02:23:42.291Z,100.00
2023-04-29T02:26:11.662Z,100.00
2023-04-29T02:28:38.921Z,100.00
2023-04-29T02:31:06.342Z,100.00
2023-04-29T02:33:34.587Z,100.00
2023-04-29T02:36:01.537Z,100.00
2023-04-29T02:38:31.593Z,100.00
2023-04-29T02:41:01.768Z,100.00
2023-04-29T02:43:31.139Z,100.00
2023-04-29T02:46:01.041Z,100.00
2023-04-29T02:48:28.820Z,100.00
2023-04-29T02:50:59.041Z,100.00
2023-04-29T02:53:26.324Z,100.00
2023-04-29T02:55:53.340Z,100.00
2023-04-29T02:58:20.394Z,100.00
2023-04-29T03:00:47.498Z,100.00
2023-04-29T03:03:14.708Z,100.00
2023-04-29T03:05:41.753Z,100.00
2023-04-29T03:08:10.699Z,100.00
2023-04-29T03:10:41.729Z,100.00
2023-04-29T03:13:11.980Z,100.00
2023-04-29T03:15:41.940Z,100.00
2023-04-29T03:18:09.900Z,100.00
2023-04-29T03:20:37.194Z,100.00
2023-04-29T03:23:06.607Z,100.00
2023-04-29T03:25:34.413Z,100.00
2023-04-29T03:28:01.957Z,100.00
2023-04-29T03:30:30.447Z,100.00
2023-04-29T03:32:58.842Z,100.00
2023-04-29T03:35:27.281Z,100.00
2023-04-29T03:38:22.788Z,100.00
2023-04-29T03:40:52.943Z,100.00
2023-04-29T03:43:20.737Z,99.86
2023-04-29T03:45:48.296Z,100.00
2023-04-29T03:48:20.249Z,99.74
2023-04-29T03:50:47.572Z,99.65
2023-04-29T03:53:14.851Z,99.69
2023-04-29T03:55:42.163Z,99.52
2023-04-29T03:58:10.345Z,98.78
2023-04-29T04:00:37.457Z,99.04
2023-04-29T04:03:09.673Z,99.25
2023-04-29T04:05:38.212Z,98.94
2023-04-29T04:08:09.505Z,99.39
2023-04-29T04:10:37.180Z,99.33
2023-04-29T04:13:11.650Z,98.90
2023-04-29T04:15:38.947Z,98.97
2023-04-29T04:18:06.497Z,98.96
2023-04-29T04:20:33.671Z,98.90
2023-04-29T04:23:00.669Z,98.77
2023-04-29T04:25:30.482Z,98.68
2023-04-29T04:28:08.186Z,98.59
2023-04-29T04:30:57.481Z,98.26
2023-04-29T04:33:26.191Z,98.21
2023-04-29T04:35:56.374Z,97.86
2023-04-29T04:38:25.558Z,97.69
2023-04-29T04:40:53.424Z,97.23
2023-04-29T04:43:33.972Z,97.22
2023-04-29T04:46:11.070Z,96.69
2023-04-29T04:48:42.037Z,96.50
2023-04-29T04:51:12.105Z,96.56
2023-04-29T04:53:40.991Z,96.14
2023-04-29T04:56:12.607Z,96.20
2023-04-29T04:58:39.665Z,95.89
2023-04-29T05:01:06.756Z,95.61
2023-04-29T05:03:34.199Z,95.04
2023-04-29T05:06:04.121Z,95.20
2023-04-29T05:08:31.268Z,94.49
2023-04-29T05:11:00.694Z,94.00
2023-04-29T05:13:28.387Z,93.70
2023-04-29T05:15:57.997Z,93.47
2023-04-29T05:18:29.607Z,92.98
2023-04-29T05:20:56.605Z,91.71
2023-04-29T05:23:24.115Z,91.26
2023-04-29T05:25:52.561Z,90.96
2023-04-29T05:28:19.727Z,91.09
2023-04-29T05:30:47.611Z,90.25
2023-04-29T05:33:15.360Z,89.58
2023-04-29T05:35:43.645Z,89.74
2023-04-29T05:38:11.048Z,89.71
2023-04-29T05:40:41.303Z,89.05
2023-04-29T05:43:28.701Z,87.94
2023-04-29T05:46:00.155Z,87.76
2023-04-29T05:48:27.435Z,88.00
2023-04-29T05:50:57.067Z,87.29
2023-04-29T05:53:27.168Z,87.53
2023-04-29T05:55:56.925Z,87.30
2023-04-29T05:58:24.005Z,86.95
2023-04-29T06:00:53.075Z,86.24
2023-04-29T06:03:23.570Z,86.36
2023-04-29T06:06:13.989Z,86.62
2023-04-29T06:08:57.664Z,86.53
2023-04-29T06:11:29.328Z,86.36
2023-04-29T06:14:00.176Z,86.60
2023-04-29T06:16:27.467Z,86.05
2023-04-29T06:18:58.682Z,84.86
2023-04-29T06:21:29.067Z,84.66
2023-04-29T06:23:56.315Z,84.12
2023-04-29T06:26:23.791Z,82.38
2023-04-29T06:28:58.080Z,81.17
2023-04-29T06:31:27.910Z,79.13
2023-04-29T06:34:36.945Z,79.00
2023-04-29T06:37:38.185Z,77.79
2023-04-29T06:40:32.609Z,76.29
2023-04-29T06:43:14.710Z,75.63
2023-04-29T06:46:11.309Z,74.78
2023-04-29T06:48:51.755Z,75.44
2023-04-29T06:51:37.402Z,75.82
2023-04-29T06:54:06.339Z,75.49
2023-04-29T06:56:35.163Z,74.28
2023-04-29T06:59:21.410Z,74.70
2023-04-29T07:01:49.948Z,72.00
2023-04-29T07:04:20.720Z,69.03
2023-04-29T07:06:49.042Z,70.56
2023-04-29T07:09:16.420Z,70.13
2023-04-29T07:11:48.594Z,69.97
2023-04-29T07:14:16.573Z,71.75
2023-04-29T07:16:45.441Z,70.76
2023-04-29T07:19:13.867Z,68.60
2023-04-29T07:21:40.829Z,70.68
2023-04-29T07:24:20.577Z,70.61
2023-04-29T07:26:50.127Z,69.59
2023-04-29T07:29:17.784Z,68.02
2023-04-29T07:31:44.854Z,68.32
2023-04-29T07:34:12.582Z,68.98
2023-04-29T07:36:39.849Z,67.53
2023-04-29T07:39:13.644Z,67.06
2023-04-29T07:41:42.429Z,66.80
2023-04-29T07:44:10.350Z,65.51
2023-04-29T07:46:38.013Z,62.46
2023-04-29T07:49:09.039Z,65.06
2023-04-29T07:51:36.394Z,65.29
2023-04-29T07:54:06.399Z,65.74
2023-04-29T07:56:33.676Z,66.32
2023-04-29T07:59:04.673Z,66.31
2023-04-29T08:01:36.014Z,65.57
2023-04-29T08:04:03.376Z,65.58
2023-04-29T08:06:37.678Z,65.55
2023-04-29T08:09:06.395Z,65.03
2023-04-29T08:11:33.620Z,65.05
2023-04-29T08:14:00.793Z,63.46
2023-04-29T08:16:30.944Z,60.93
2023-04-29T08:18:58.232Z,60.06
2023-04-29T08:21:25.593Z,57.30
2023-04-29T08:23:53.777Z,55.95
2023-04-29T08:26:22.130Z,55.29
2023-04-29T08:28:50.888Z,55.06
2023-04-29T08:31:22.035Z,54.92
2023-04-29T08:33:49.393Z,52.95
2023-04-29T08:36:19.458Z,52.52
2023-04-29T08:38:47.163Z,54.28
2023-04-29T08:41:24.126Z,55.61
2023-04-29T08:43:51.506Z,55.12
2023-04-29T08:46:19.625Z,51.63
2023-04-29T08:48:53.717Z,50.63
2023-04-29T08:51:21.023Z,49.80
2023-04-29T08:53:50.576Z,48.21
2023-04-29T08:56:22.156Z,49.26
2023-04-29T08:58:58.549Z,47.27
2023-04-29T09:01:28.801Z,45.75
2023-04-29T09:04:09.195Z,47.59
2023-04-29T09:06:43.704Z,48.43
2023-04-29T09:09:29.866Z,44.18
2023-04-29T09:12:00.187Z,42.52
2023-04-29T09:14:29.273Z,45.93
2023-04-29T09:17:00.228Z,49.28
2023-04-29T09:19:35.327Z,51.13
2023-04-29T09:22:21.601Z,50.89
2023-04-29T09:24:51.973Z,52.25
2023-04-29T09:27:31.761Z,47.18
2023-04-29T09:30:02.288Z,44.64
2023-04-29T09:32:37.571Z,45.15
2023-04-29T09:35:25.693Z,44.13
2023-04-29T09:38:27.803Z,42.69
2023-04-29T09:41:18.181Z,41.05
2023-04-29T09:43:45.163Z,42.46
2023-04-29T09:46:16.471Z,41.06
2023-04-29T09:49:01.933Z,40.83
2023-04-29T09:51:29.073Z,37.32
2023-04-29T09:53:56.150Z,34.50
2023-04-29T09:56:24.126Z,33.62
2023-04-29T09:59:10.712Z,35.86
2023-04-29T10:01:40.509Z,36.83
2023-04-29T10:04:11.783Z,39.27
2023-04-29T10:06:41.405Z,41.24
2023-04-29T10:09:09.716Z,42.55
2023-04-29T10:11:36.986Z,42.14
2023-04-29T10:14:06.414Z,42.65
2023-04-29T10:16:35.409Z,43.84
2023-04-29T10:19:07.034Z,43.12
2023-04-29T10:21:34.181Z,40.00
2023-04-29T10:24:02.609Z,41.52
2023-04-29T10:26:30.204Z,41.88
2023-04-29T10:28:57.863Z,40.95
2023-04-29T10:31:28.206Z,41.59
2023-04-29T10:33:57.143Z,41.58
2023-04-29T10:36:28.619Z,41.87
2023-04-29T10:38:59.100Z,41.82
2023-04-29T10:41:42.889Z,40.94
2023-04-29T10:44:11.005Z,41.68
2023-04-29T10:46:38.469Z,40.97
2023-04-29T10:49:07.716Z,40.79
2023-04-29T10:51:35.774Z,40.86
2023-04-29T10:54:13.955Z,39.78
2023-04-29T10:56:51.131Z,39.62
2023-04-29T10:59:37.291Z,39.77
2023-04-29T11:02:19.154Z,39.53
2023-04-29T11:05:08.400Z,37.49
2023-04-29T11:07:50.943Z,36.67
2023-04-29T11:10:38.650Z,33.83
2023-04-29T11:13:22.853Z,32.56
2023-04-29T11:15:52.113Z,31.51
2023-04-29T11:18:19.423Z,31.58
2023-04-29T11:21:06.039Z,29.68
2023-04-29T11:23:37.542Z,28.39
2023-04-29T11:26:05.524Z,29.14
2023-04-29T11:28:54.990Z,31.57
2023-04-29T11:31:34.030Z,33.03
2023-04-29T11:34:01.340Z,33.41
2023-04-29T11:36:47.903Z,33.96
2023-04-29T11:39:36.738Z,35.37
2023-04-29T11:42:07.161Z,35.29
2023-04-29T11:44:36.146Z,35.90
2023-04-29T11:47:07.258Z,35.75
2023-04-29T11:49:35.558Z,36.69
2023-04-29T11:52:02.581Z,36.81
2023-04-29T11:54:30.196Z,36.90
2023-04-29T11:57:01.019Z,37.61
2023-04-29T11:59:28.169Z,37.04
2023-04-29T12:01:55.567Z,35.52
2023-04-29T12:04:22.897Z,35.25
2023-04-29T12:06:55.879Z,31.34
2023-04-29T12:09:23.637Z,27.86
2023-04-29T12:11:51.464Z,26.59
2023-04-29T12:14:19.703Z,25.32
2023-04-29T12:16:47.117Z,24.54
2023-04-29T12:19:16.884Z,24.62
2023-04-29T12:21:50.336Z,23.69
2023-04-29T12:24:17.751Z,22.65
2023-04-29T12:26:46.947Z,22.79
2023-04-29T12:29:16.950Z,23.17
2023-04-29T12:31:47.894Z,24.48
2023-04-29T12:34:15.034Z,24.77
2023-04-29T12:36:46.522Z,23.64
2023-04-29T12:39:13.986Z,24.80
2023-04-29T12:41:42.557Z,26.53
2023-04-29T12:44:13.070Z,27.51
2023-04-29T12:46:42.711Z,27.58
2023-04-29T12:49:10.032Z,28.76
2023-04-29T12:51:39.996Z,26.58
2023-04-29T12:54:10.210Z,27.73
2023-04-29T12:56:38.738Z,27.78
2023-04-29T12:59:07.745Z,27.29
2023-04-29T13:01:34.935Z,24.77
2023-04-29T13:04:02.604Z,22.43
2023-04-29T13:06:33.097Z,21.52
2023-04-29T13:09:00.672Z,21.60
2023-04-29T13:11:32.463Z,20.80
2023-04-29T13:14:02.561Z,20.46
2023-04-29T13:16:29.761Z,20.03
2023-04-29T13:19:16.941Z,19.63
2023-04-29T13:21:47.324Z,18.86
2023-04-29T13:24:14.609Z,18.90
2023-04-29T13:26:42.489Z,18.89
2023-04-29T13:29:09.911Z,17.86
2023-04-29T13:31:37.033Z,18.46
2023-04-29T13:34:04.007Z,18.68
2023-04-29T13:36:31.167Z,19.77
2023-04-29T13:39:00.776Z,18.95
2023-04-29T13:41:28.183Z,18.04
2023-04-29T13:43:58.527Z,17.42
2023-04-29T13:46:26.143Z,17.67
2023-04-29T13:59:38.130Z,16.99
2023-04-29T14:04:21.679Z,16.77
2023-04-29T14:06:50.687Z,16.37
2023-04-29T14:09:18.816Z,16.81
2023-04-29T14:12:16.245Z,16.56
2023-04-29T14:14:46.389Z,17.01
2023-04-29T14:17:13.410Z,16.74
2023-04-29T14:19:40.472Z,16.15
2023-04-29T14:22:08.257Z,16.26
2023-04-29T14:24:54.470Z,16.94
2023-04-29T14:27:21.862Z,17.09
2023-04-29T14:29:49.140Z,18.08
2023-04-29T14:32:18.508Z,20.75
2023-04-29T14:34:47.338Z,22.61
2023-04-29T14:37:33.018Z,22.99
2023-04-29T14:40:18.817Z,24.25
2023-04-29T14:42:47.117Z,25.41
2023-04-29T14:45:14.107Z,26.11
2023-04-29T14:47:41.317Z,25.13
2023-04-29T14:50:30.675Z,23.18
2023-04-29T14:53:01.689Z,22.33
2023-04-29T14:55:30.841Z,21.86
2023-04-29T14:58:02.472Z,22.88
2023-04-29T15:00:30.293Z,20.95
2023-04-29T15:03:03.625Z,19.31
2023-04-29T15:05:31.597Z,18.63
2023-04-29T15:08:02.604Z,19.14
2023-04-29T15:10:35.173Z,18.50
2023-04-29T15:13:03.453Z,17.83
2023-04-29T15:15:48.937Z,17.85
2023-04-29T15:18:16.177Z,18.46
2023-04-29T15:20:43.210Z,18.47
2023-04-29T15:23:10.452Z,18.85
2023-04-29T15:25:38.395Z,18.70
2023-04-29T15:28:06.047Z,19.79
2023-04-29T15:31:01.887Z,22.04
2023-04-29T15:33:28.970Z,24.39
2023-04-29T15:35:56.950Z,25.54
2023-04-29T15:38:23.926Z,26.38
2023-04-29T15:40:50.974Z,27.36
2023-04-29T15:43:18.078Z,28.68
2023-04-29T15:45:49.511Z,28.35
2023-04-29T15:48:16.630Z,28.74
2023-04-29T15:50:43.606Z,28.18
2023-04-29T15:53:11.200Z,28.46
2023-04-29T15:55:38.740Z,28.79
2023-04-29T15:58:06.026Z,29.62
2023-04-29T16:00:33.535Z,30.08
2023-04-29T16:03:19.239Z,30.55
2023-04-29T16:05:46.656Z,29.34
2023-04-29T16:08:13.670Z,29.77
2023-04-29T16:10:41.046Z,30.16
2023-04-29T16:13:14.559Z,30.17
2023-04-29T16:15:51.057Z,30.25
2023-04-29T16:18:20.959Z,31.24
2023-04-29T16:20:48.011Z,31.29
2023-04-29T16:23:15.169Z,30.84
2023-04-29T16:25:42.319Z,31.34
2023-04-29T16:28:09.338Z,31.72
2023-04-29T16:30:37.453Z,31.64
2023-04-29T16:33:10.267Z,31.44
2023-04-29T16:35:38.013Z,31.91
2023-04-29T16:38:07.469Z,32.52
2023-04-29T16:40:34.654Z,33.29
2023-04-29T16:43:01.617Z,33.40
2023-04-29T16:45:28.706Z,34.19
2023-04-29T16:47:57.285Z,34.60
2023-04-29T16:50:28.503Z,34.89
2023-04-29T16:52:55.603Z,34.69
2023-04-29T16:55:25.337Z,34.96
2023-04-29T16:57:52.856Z,35.08
2023-04-29T17:00:19.984Z,35.63
2023-04-29T17:02:49.052Z,36.74
2023-04-29T17:05:34.834Z,37.72
2023-04-29T17:08:05.758Z,38.26
2023-04-29T17:10:55.600Z,39.31
2023-04-29T17:13:30.934Z,39.11
2023-04-29T17:16:17.680Z,38.50
2023-04-29T17:18:56.465Z,40.52
2023-04-29T17:21:27.292Z,41.32
2023-04-29T17:24:03.779Z,42.15
2023-04-29T17:26:41.302Z,41.20
2023-04-29T17:29:15.185Z,43.80
2023-04-29T17:31:48.125Z,45.62
2023-04-29T17:34:30.733Z,45.97
2023-04-29T17:37:13.806Z,46.91
2023-04-29T17:40:11.793Z,47.40
2023-04-29T17:42:44.340Z,47.73
2023-04-29T17:45:16.900Z,47.41
2023-04-29T17:47:57.657Z,47.92
2023-04-29T18:03:15.366Z,50.89
2023-04-29T18:05:50.191Z,51.54
2023-04-29T18:08:27.924Z,51.82
2023-04-29T18:11:29.803Z,50.68
2023-04-29T18:50:24.310Z,54.62
2023-04-29T18:52:53.438Z,54.57
2023-04-29T18:55:20.516Z,53.52
2023-04-29T18:57:56.689Z,52.93
2023-04-29T19:00:26.209Z,51.77
2023-04-29T19:02:53.471Z,51.64
2023-04-29T19:05:21.392Z,51.90
2023-04-29T19:07:51.531Z,51.27
2023-04-29T19:10:22.814Z,51.16
2023-04-29T19:12:50.664Z,51.07
2023-04-29T19:15:18.764Z,51.38
2023-04-29T19:17:45.879Z,51.76
2023-04-29T19:20:14.433Z,52.51
2023-04-29T19:22:45.204Z,52.44
2023-04-29T19:25:16.260Z,52.65
2023-04-29T19:27:48.971Z,52.37
2023-04-29T19:30:18.021Z,53.39
2023-04-29T19:32:47.120Z,54.31
2023-04-29T19:35:14.463Z,53.43
2023-04-29T19:37:44.754Z,53.48
2023-04-29T19:40:12.066Z,53.46
2023-04-29T19:42:40.399Z,53.54
2023-04-29T19:45:08.555Z,54.25
2023-04-29T19:47:55.364Z,54.65
2023-04-29T19:50:24.895Z,56.07
2023-04-29T19:52:53.940Z,57.15
2023-04-29T19:55:21.430Z,57.83
2023-04-29T19:57:49.100Z,58.51
2023-04-29T20:00:17.565Z,58.33
2023-04-29T20:02:47.541Z,57.94
2023-04-29T20:05:15.470Z,57.82
2023-04-29T20:07:45.674Z,57.85
2023-04-29T20:10:15.927Z,57.79
2023-04-29T20:12:43.210Z,58.04
2023-04-29T20:15:11.928Z,57.81
2023-04-29T20:17:39.517Z,57.77
2023-04-29T20:20:09.301Z,57.63
2023-04-29T20:22:37.120Z,57.78
2023-04-29T20:25:05.059Z,57.96
2023-04-29T20:27:32.889Z,57.69
2023-04-29T20:30:00.989Z,58.29
2023-04-29T20:32:32.331Z,59.75
2023-04-29T20:34:59.817Z,60.58
2023-04-29T20:37:27.070Z,61.75
2023-04-29T20:39:57.227Z,61.95
2023-04-29T20:42:25.958Z,62.10
2023-04-29T20:44:54.079Z,61.99
2023-04-29T20:47:22.196Z,61.75
2023-04-29T20:49:50.406Z,63.12
2023-04-29T20:52:43.941Z,63.82
2023-04-29T20:55:11.220Z,64.24
2023-04-29T20:57:38.793Z,64.98
2023-04-29T21:00:06.693Z,65.28
2023-04-29T21:02:40.352Z,64.92
2023-04-29T21:07:50.825Z,65.29
2023-04-29T21:10:18.118Z,66.16
2023-04-29T21:12:47.585Z,66.59
2023-04-29T21:15:16.348Z,67.21
2023-04-29T21:17:43.733Z,67.53
2023-04-29T21:20:11.128Z,67.81
2023-04-29T21:22:38.279Z,67.97
2023-04-29T21:25:05.621Z,68.67
2023-04-29T21:27:35.979Z,69.01
2023-04-29T21:30:05.037Z,69.30
2023-04-29T21:32:38.240Z,69.47
2023-04-29T21:35:08.727Z,69.70
2023-04-29T21:37:35.831Z,69.72
2023-04-29T21:40:04.480Z,69.63
2023-04-29T21:42:32.889Z,69.93
2023-04-29T21:45:01.501Z,70.23
2023-04-29T21:47:33.101Z,70.41
2023-04-29T21:50:01.255Z,70.61
2023-04-29T21:52:35.830Z,69.89
2023-04-29T21:55:06.969Z,69.91
2023-04-29T21:57:43.603Z,69.76
2023-04-29T22:00:33.337Z,69.53
2023-04-29T22:03:01.798Z,69.79
2023-04-29T22:05:29.583Z,69.55
2023-04-29T22:07:58.632Z,69.53
2023-04-29T22:10:25.916Z,69.95
2023-04-29T22:12:53.015Z,69.54
2023-04-29T22:15:28.266Z,69.48
2023-04-29T22:17:57.002Z,69.12
2023-04-29T22:20:24.428Z,69.38
2023-04-29T22:22:57.056Z,70.33
2023-04-29T22:25:24.165Z,71.40
2023-04-29T22:27:52.104Z,71.66
2023-04-29T22:30:19.893Z,71.37
2023-04-29T22:32:46.934Z,70.56
2023-04-29T22:35:14.121Z,70.79
2023-04-29T22:37:41.269Z,71.48
2023-04-29T22:40:08.852Z,71.83
2023-04-29T22:42:35.993Z,72.00
2023-04-29T22:45:03.055Z,72.27
2023-04-29T22:47:31.913Z,73.00
2023-04-29T22:49:58.911Z,73.61
2023-04-29T22:52:27.586Z,74.31
2023-04-29T22:54:54.714Z,74.72
2023-04-29T22:57:21.793Z,75.04
2023-04-29T22:59:49.415Z,75.23
2023-04-29T23:02:16.451Z,75.95
2023-04-29T23:04:43.667Z,76.36
2023-04-29T23:07:10.708Z,76.82
2023-04-29T23:09:37.673Z,77.21
2023-04-29T23:12:04.755Z,77.42
2023-04-29T23:14:31.761Z,77.83
2023-04-29T23:16:58.854Z,78.15
2023-04-29T23:19:31.598Z,78.38
2023-04-29T23:22:02.241Z,78.61
2023-04-29T23:24:29.388Z,79.00
2023-04-29T23:26:56.576Z,79.15
2023-04-29T23:29:26.898Z,79.73
2023-04-29T23:31:53.864Z,79.98
2023-04-29T23:34:21.196Z,79.83
2023-04-29T23:36:48.204Z,79.87
2023-04-29T23:39:15.233Z,80.06
2023-04-29T23:41:42.165Z,80.00
2023-04-29T23:44:09.225Z,80.38
2023-04-29T23:46:36.268Z,80.46
2023-04-29T23:49:03.278Z,80.51
2023-04-29T23:51:32.794Z,80.73
2023-04-29T23:54:00.947Z,80.67
2023-04-29T23:56:33.071Z,80.69
2023-04-29T23:59:00.061Z,80.64
